AAL1738 KPHL-MBPV
Flight info
| Callsign | AAL1738 |
|---|---|
| Flight time | 2h 41m |
| Altitude | 34000 |
| Route | OOD DCT TEBEE DCT HAYDO DCT TRPOD Q409 CRPLR DCT KOOKI Q161 BENCH DCT SKARP Y327 PRTHR DCT RROOO Y323 WEAKK/N0452F360 Y323 CARPX AR3 CASPR Y307 NUCAR/N0449F350 L463 BTLER |
| Aircraft | A321/M-SDE3FGHIRWY/LB1 |
Departure
| Time | 2026-04-23 17:15 |
|---|---|
| Airport | Philadelphia International Airport (KPHL) |
Arrival
| Time | 2026-04-23 19:57 |
|---|---|
| Airport | Providenciales International Airport (MBPV) |
| Time | Latitude | Longitude | Altitude | Speed | Heading |
|---|---|---|---|---|---|
| 2026-04-23 16:51 | 39.87233 | -75.25143 | 29 ft | 0 kts | 324° |
| 2026-04-23 17:03 | 39.87219 | -75.25129 | 47 ft | 4 kts | 315° |
| 2026-04-23 17:03 | 39.87203 | -75.25102 | 26 ft | 4 kts | 296° |
| 2026-04-23 17:04 | 39.87194 | -75.25069 | 25 ft | 4 kts | 279° |
| 2026-04-23 17:04 | 39.87192 | -75.25035 | 29 ft | 4 kts | 263° |
| 2026-04-23 17:04 | 39.87198 | -75.25001 | 28 ft | 4 kts | 245° |
| 2026-04-23 17:04 | 39.87213 | -75.24974 | 30 ft | 4 kts | 202° |
| 2026-04-23 17:05 | 39.87223 | -75.24971 | 30 ft | 0 kts | 161° |
| 2026-04-23 17:07 | 39.87216 | -75.24968 | 29 ft | 4 kts | 161° |
| 2026-04-23 17:08 | 39.87180 | -75.24955 | 28 ft | 6 kts | 165° |
| 2026-04-23 17:08 | 39.87138 | -75.24937 | 28 ft | 6 kts | 151° |
| 2026-04-23 17:08 | 39.87124 | -75.24886 | 27 ft | 7 kts | 98° |
| 2026-04-23 17:08 | 39.87136 | -75.24795 | 26 ft | 13 kts | 75° |
| 2026-04-23 17:09 | 39.87161 | -75.24675 | 27 ft | 14 kts | 75° |
| 2026-04-23 17:09 | 39.87186 | -75.24550 | 25 ft | 15 kts | 75° |
| 2026-04-23 17:09 | 39.87212 | -75.24420 | 25 ft | 15 kts | 75° |
| 2026-04-23 17:09 | 39.87239 | -75.24285 | 25 ft | 16 kts | 76° |
| 2026-04-23 17:10 | 39.87251 | -75.24179 | 25 ft | 7 kts | 109° |
| 2026-04-23 17:10 | 39.87248 | -75.24173 | 25 ft | 0 kts | 123° |
| 2026-04-23 17:11 | 39.87246 | -75.24170 | 25 ft | 2 kts | 124° |
| 2026-04-23 17:11 | 39.87222 | -75.24144 | 25 ft | 7 kts | 146° |
| 2026-04-23 17:11 | 39.87162 | -75.24103 | 27 ft | 12 kts | 162° |
| 2026-04-23 17:12 | 39.87067 | -75.24069 | 28 ft | 15 kts | 166° |
| 2026-04-23 17:12 | 39.86965 | -75.24036 | 27 ft | 14 kts | 166° |
| 2026-04-23 17:12 | 39.86908 | -75.23960 | 25 ft | 11 kts | 74° |
| 2026-04-23 17:12 | 39.86920 | -75.23896 | 27 ft | 8 kts | 79° |
| 2026-04-23 17:13 | 39.86937 | -75.23803 | 25 ft | 11 kts | 76° |
| 2026-04-23 17:13 | 39.86957 | -75.23702 | 25 ft | 12 kts | 75° |
| 2026-04-23 17:13 | 39.86979 | -75.23595 | 25 ft | 13 kts | 75° |
| 2026-04-23 17:13 | 39.86968 | -75.23514 | 27 ft | 7 kts | 169° |
| 2026-04-23 17:14 | 39.86917 | -75.23495 | 27 ft | 9 kts | 163° |
| 2026-04-23 17:14 | 39.86878 | -75.23530 | 26 ft | 8 kts | 252° |
| 2026-04-23 17:14 | 39.86853 | -75.23653 | 28 ft | 34 kts | 256° |
| 2026-04-23 17:14 | 39.86735 | -75.24250 | 27 ft | 101 kts | 255° |
| 2026-04-23 17:15 | 39.86509 | -75.25376 | 28 ft | 153 kts | 255° |
| 2026-04-23 17:15 | 39.86199 | -75.26884 | 173 ft | 182 kts | 256° |
| 2026-04-23 17:15 | 39.85885 | -75.28427 | 946 ft | 172 kts | 251° |
| 2026-04-23 17:15 | 39.85453 | -75.29824 | 1791 ft | 163 kts | 231° |
| 2026-04-23 17:16 | 39.84645 | -75.30900 | 2247 ft | 175 kts | 220° |
| 2026-04-23 17:16 | 39.83638 | -75.31953 | 2420 ft | 197 kts | 219° |
| 2026-04-23 17:16 | 39.82476 | -75.33098 | 2620 ft | 222 kts | 218° |
| 2026-04-23 17:16 | 39.81043 | -75.34016 | 3090 ft | 240 kts | 195° |
| 2026-04-23 17:17 | 39.79324 | -75.33944 | 3660 ft | 256 kts | 176° |
| 2026-04-23 17:17 | 39.77543 | -75.33548 | 4299 ft | 264 kts | 175° |
| 2026-04-23 17:17 | 39.76338 | -75.33269 | 4707 ft | 269 kts | 174° |
| 2026-04-23 17:17 | 39.73828 | -75.32679 | 5521 ft | 278 kts | 174° |
| 2026-04-23 17:18 | 39.69937 | -75.31776 | 6744 ft | 289 kts | 174° |
| 2026-04-23 17:18 | 39.67967 | -75.31324 | 7375 ft | 293 kts | 174° |
| 2026-04-23 17:18 | 39.65947 | -75.30859 | 8041 ft | 297 kts | 174° |
| 2026-04-23 17:19 | 39.63899 | -75.30474 | 8692 ft | 297 kts | 182° |
| 2026-04-23 17:19 | 39.61846 | -75.30611 | 9362 ft | 295 kts | 193° |
| 2026-04-23 17:19 | 39.59801 | -75.30982 | 10026 ft | 298 kts | 193° |
| 2026-04-23 17:19 | 39.57696 | -75.31375 | 10284 ft | 317 kts | 193° |
| 2026-04-23 17:20 | 39.55441 | -75.31801 | 10413 ft | 338 kts | 193° |
| 2026-04-23 17:20 | 39.50519 | -75.32709 | 10660 ft | 376 kts | 193° |
| 2026-04-23 17:21 | 39.45270 | -75.33646 | 11664 ft | 387 kts | 193° |
| 2026-04-23 17:21 | 39.42592 | -75.34118 | 12283 ft | 390 kts | 193° |
| 2026-04-23 17:21 | 39.37173 | -75.35083 | 13483 ft | 396 kts | 194° |
| 2026-04-23 17:22 | 39.34434 | -75.35580 | 14060 ft | 399 kts | 194° |
| 2026-04-23 17:22 | 39.28897 | -75.36585 | 15152 ft | 404 kts | 194° |
| 2026-04-23 17:23 | 39.23286 | -75.37595 | 16176 ft | 411 kts | 194° |
| 2026-04-23 17:23 | 39.20480 | -75.38098 | 16664 ft | 415 kts | 194° |
| 2026-04-23 17:23 | 39.14698 | -75.39131 | 17638 ft | 423 kts | 194° |
| 2026-04-23 17:24 | 39.11767 | -75.39654 | 18102 ft | 427 kts | 194° |
| 2026-04-23 17:24 | 39.08811 | -75.40184 | 18526 ft | 430 kts | 194° |
| 2026-04-23 17:24 | 39.02837 | -75.41256 | 19315 ft | 437 kts | 194° |
| 2026-04-23 17:25 | 38.96771 | -75.42337 | 20083 ft | 444 kts | 193° |
| 2026-04-23 17:25 | 38.93699 | -75.42881 | 20443 ft | 447 kts | 193° |
| 2026-04-23 17:26 | 38.87544 | -75.43965 | 21230 ft | 452 kts | 193° |
| 2026-04-23 17:26 | 38.81259 | -75.45067 | 21953 ft | 459 kts | 192° |
| 2026-04-23 17:27 | 38.74896 | -75.46195 | 22649 ft | 465 kts | 192° |
| 2026-04-23 17:27 | 38.71679 | -75.46765 | 22990 ft | 468 kts | 192° |
| 2026-04-23 17:27 | 38.68441 | -75.47339 | 23333 ft | 471 kts | 192° |
| 2026-04-23 17:27 | 38.65182 | -75.47916 | 23648 ft | 474 kts | 192° |
| 2026-04-23 17:28 | 38.61949 | -75.48484 | 23931 ft | 477 kts | 192° |
| 2026-04-23 17:28 | 38.58657 | -75.49057 | 24227 ft | 479 kts | 192° |
| 2026-04-23 17:28 | 38.55346 | -75.49630 | 24524 ft | 481 kts | 192° |
| 2026-04-23 17:28 | 38.52023 | -75.50207 | 24812 ft | 483 kts | 192° |
| 2026-04-23 17:29 | 38.48684 | -75.50791 | 25108 ft | 485 kts | 192° |
| 2026-04-23 17:29 | 38.45329 | -75.51380 | 25376 ft | 488 kts | 192° |
| 2026-04-23 17:29 | 38.38591 | -75.52591 | 25954 ft | 490 kts | 195° |
| 2026-04-23 17:30 | 38.36397 | -75.53231 | 26135 ft | 488 kts | 200° |
| 2026-04-23 17:30 | 38.30230 | -75.56638 | 26687 ft | 480 kts | 217° |
| 2026-04-23 17:30 | 38.26580 | -75.59788 | 27141 ft | 478 kts | 220° |
| 2026-04-23 17:31 | 38.23849 | -75.62178 | 27541 ft | 477 kts | 219° |
| 2026-04-23 17:31 | 38.21112 | -75.64555 | 27917 ft | 476 kts | 219° |
| 2026-04-23 17:31 | 38.18380 | -75.66921 | 28315 ft | 475 kts | 219° |
| 2026-04-23 17:31 | 38.15653 | -75.69282 | 28711 ft | 474 kts | 219° |
| 2026-04-23 17:32 | 38.13848 | -75.70843 | 28956 ft | 473 kts | 219° |
| 2026-04-23 17:32 | 38.11128 | -75.73196 | 29329 ft | 473 kts | 219° |
| 2026-04-23 17:32 | 38.08413 | -75.75545 | 29712 ft | 472 kts | 219° |
| 2026-04-23 17:32 | 38.04823 | -75.78652 | 30191 ft | 471 kts | 219° |
| 2026-04-23 17:33 | 38.02121 | -75.80994 | 30479 ft | 470 kts | 219° |
| 2026-04-23 17:33 | 38.00296 | -75.82575 | 30676 ft | 470 kts | 219° |
| 2026-04-23 17:33 | 37.97596 | -75.84910 | 30998 ft | 469 kts | 219° |
| 2026-04-23 17:33 | 37.94937 | -75.87204 | 31307 ft | 469 kts | 219° |
| 2026-04-23 17:34 | 37.92244 | -75.89526 | 31602 ft | 468 kts | 219° |
| 2026-04-23 17:34 | 37.89555 | -75.91846 | 31891 ft | 468 kts | 219° |
| 2026-04-23 17:34 | 37.84169 | -75.96477 | 32494 ft | 468 kts | 219° |
| 2026-04-23 17:35 | 37.81477 | -75.98788 | 32650 ft | 467 kts | 219° |
| 2026-04-23 17:35 | 37.76057 | -76.03436 | 32924 ft | 474 kts | 219° |
| 2026-04-23 17:35 | 37.73319 | -76.05783 | 33057 ft | 478 kts | 219° |
| 2026-04-23 17:36 | 37.70565 | -76.08145 | 33234 ft | 480 kts | 219° |
| 2026-04-23 17:36 | 37.67797 | -76.10515 | 33469 ft | 480 kts | 219° |
| 2026-04-23 17:36 | 37.65034 | -76.12878 | 33721 ft | 480 kts | 219° |
| 2026-04-23 17:36 | 37.62207 | -76.15139 | 33950 ft | 484 kts | 213° |
| 2026-04-23 17:37 | 37.55841 | -76.18167 | 34050 ft | 495 kts | 197° |
| 2026-04-23 17:38 | 37.45875 | -76.21311 | 34040 ft | 494 kts | 198° |
| 2026-04-23 17:38 | 37.39211 | -76.23456 | 34046 ft | 494 kts | 198° |
| 2026-04-23 17:39 | 37.32552 | -76.25589 | 34052 ft | 493 kts | 198° |
| 2026-04-23 17:39 | 37.25901 | -76.27703 | 34053 ft | 493 kts | 198° |
| 2026-04-23 17:40 | 37.19294 | -76.29787 | 34053 ft | 493 kts | 198° |
| 2026-04-23 17:40 | 37.12636 | -76.31893 | 34047 ft | 493 kts | 197° |
| 2026-04-23 17:41 | 37.05986 | -76.34004 | 34060 ft | 493 kts | 198° |
| 2026-04-23 17:41 | 36.96016 | -76.37163 | 34092 ft | 493 kts | 197° |
| 2026-04-23 17:42 | 36.86094 | -76.40275 | 34070 ft | 492 kts | 197° |
| 2026-04-23 17:43 | 36.79452 | -76.42357 | 34073 ft | 492 kts | 197° |
| 2026-04-23 17:43 | 36.72817 | -76.44431 | 34074 ft | 491 kts | 197° |
| 2026-04-23 17:44 | 36.66190 | -76.46503 | 34053 ft | 491 kts | 197° |
| 2026-04-23 17:44 | 36.56304 | -76.49587 | 34060 ft | 490 kts | 197° |
| 2026-04-23 17:45 | 36.46403 | -76.52674 | 34044 ft | 489 kts | 197° |
| 2026-04-23 17:46 | 36.36521 | -76.55750 | 34069 ft | 487 kts | 197° |
| 2026-04-23 17:46 | 36.29987 | -76.57777 | 34074 ft | 487 kts | 197° |
| 2026-04-23 17:47 | 36.23419 | -76.59800 | 34068 ft | 486 kts | 197° |
| 2026-04-23 17:48 | 36.13580 | -76.62832 | 34086 ft | 485 kts | 197° |
| 2026-04-23 17:48 | 36.07039 | -76.64850 | 34086 ft | 484 kts | 197° |
| 2026-04-23 17:49 | 36.00549 | -76.66852 | 34084 ft | 484 kts | 197° |
| 2026-04-23 17:49 | 35.94017 | -76.68856 | 34080 ft | 483 kts | 197° |
| 2026-04-23 17:50 | 35.87752 | -76.71630 | 34081 ft | 476 kts | 210° |
| 2026-04-23 17:50 | 35.78858 | -76.77085 | 34081 ft | 476 kts | 209° |
| 2026-04-23 17:51 | 35.72975 | -76.80659 | 34068 ft | 475 kts | 209° |
| 2026-04-23 17:52 | 35.64084 | -76.86058 | 34081 ft | 475 kts | 209° |
| 2026-04-23 17:52 | 35.55087 | -76.91166 | 34084 ft | 477 kts | 204° |
| 2026-04-23 17:53 | 35.45852 | -76.95534 | 34085 ft | 476 kts | 204° |
| 2026-04-23 17:54 | 35.39677 | -76.98452 | 34091 ft | 476 kts | 204° |
| 2026-04-23 17:54 | 35.30426 | -77.02836 | 34091 ft | 475 kts | 204° |
| 2026-04-23 17:55 | 35.21183 | -77.07189 | 34092 ft | 474 kts | 204° |
| 2026-04-23 17:56 | 35.15066 | -77.10074 | 34105 ft | 474 kts | 204° |
| 2026-04-23 17:56 | 35.05831 | -77.14405 | 34094 ft | 474 kts | 204° |
| 2026-04-23 17:57 | 34.99682 | -77.17274 | 34101 ft | 474 kts | 204° |
| 2026-04-23 17:58 | 34.90493 | -77.21577 | 34096 ft | 474 kts | 204° |
| 2026-04-23 17:58 | 34.84340 | -77.24459 | 34090 ft | 474 kts | 203° |
| 2026-04-23 17:59 | 34.78190 | -77.27329 | 34098 ft | 473 kts | 203° |
| 2026-04-23 17:59 | 34.72041 | -77.30188 | 34105 ft | 473 kts | 203° |
| 2026-04-23 18:00 | 34.65939 | -77.33023 | 34105 ft | 473 kts | 203° |
| 2026-04-23 18:00 | 34.59787 | -77.35876 | 34108 ft | 473 kts | 203° |
| 2026-04-23 18:01 | 34.53641 | -77.38721 | 34110 ft | 473 kts | 203° |
| 2026-04-23 18:01 | 34.47400 | -77.41249 | 34106 ft | 475 kts | 193° |
| 2026-04-23 18:02 | 34.40917 | -77.42555 | 34118 ft | 476 kts | 191° |
| 2026-04-23 18:02 | 34.34384 | -77.43827 | 34118 ft | 476 kts | 191° |
| 2026-04-23 18:03 | 34.27848 | -77.45107 | 34122 ft | 475 kts | 191° |
| 2026-04-23 18:03 | 34.21326 | -77.46382 | 34114 ft | 475 kts | 191° |
| 2026-04-23 18:04 | 34.14804 | -77.47655 | 34116 ft | 474 kts | 191° |
| 2026-04-23 18:04 | 34.08334 | -77.48913 | 34117 ft | 474 kts | 191° |
| 2026-04-23 18:05 | 34.01819 | -77.50177 | 34114 ft | 474 kts | 191° |
| 2026-04-23 18:05 | 33.95303 | -77.51441 | 34118 ft | 474 kts | 191° |
| 2026-04-23 18:06 | 33.88788 | -77.52707 | 34124 ft | 474 kts | 191° |
| 2026-04-23 18:06 | 33.82318 | -77.53958 | 34129 ft | 474 kts | 191° |
| 2026-04-23 18:07 | 33.75807 | -77.55210 | 34140 ft | 474 kts | 191° |
| 2026-04-23 18:07 | 33.69294 | -77.56464 | 34133 ft | 474 kts | 191° |
| 2026-04-23 18:08 | 33.63885 | -77.57508 | 34141 ft | 474 kts | 191° |
| 2026-04-23 18:08 | 33.56299 | -77.58733 | 34121 ft | 475 kts | 184° |
| 2026-04-23 18:09 | 33.49697 | -77.59071 | 34128 ft | 475 kts | 184° |
| 2026-04-23 18:09 | 33.43094 | -77.59421 | 34121 ft | 474 kts | 185° |
| 2026-04-23 18:10 | 33.36504 | -77.59776 | 34141 ft | 474 kts | 184° |
| 2026-04-23 18:10 | 33.29957 | -77.60114 | 34135 ft | 474 kts | 184° |
| 2026-04-23 18:11 | 33.23371 | -77.60454 | 34137 ft | 473 kts | 184° |
| 2026-04-23 18:11 | 33.16791 | -77.60805 | 34142 ft | 473 kts | 184° |
| 2026-04-23 18:12 | 33.10215 | -77.61162 | 34143 ft | 473 kts | 184° |
| 2026-04-23 18:12 | 33.03637 | -77.61511 | 34146 ft | 473 kts | 184° |
| 2026-04-23 18:13 | 32.97121 | -77.61848 | 34150 ft | 472 kts | 184° |
| 2026-04-23 18:13 | 32.90563 | -77.62188 | 34151 ft | 471 kts | 184° |
| 2026-04-23 18:14 | 32.84015 | -77.62529 | 34151 ft | 471 kts | 184° |
| 2026-04-23 18:14 | 32.77470 | -77.62881 | 34149 ft | 471 kts | 184° |
| 2026-04-23 18:15 | 32.70972 | -77.63224 | 34156 ft | 471 kts | 184° |
| 2026-04-23 18:15 | 32.64432 | -77.63569 | 34164 ft | 470 kts | 184° |
| 2026-04-23 18:16 | 32.57891 | -77.63910 | 34156 ft | 470 kts | 184° |
| 2026-04-23 18:16 | 32.51353 | -77.64248 | 34151 ft | 470 kts | 184° |
| 2026-04-23 18:17 | 32.41556 | -77.64761 | 34158 ft | 470 kts | 184° |
| 2026-04-23 18:17 | 32.35072 | -77.65099 | 34156 ft | 469 kts | 184° |
| 2026-04-23 18:18 | 32.28549 | -77.65443 | 34155 ft | 469 kts | 185° |
| 2026-04-23 18:18 | 32.22026 | -77.65784 | 34153 ft | 469 kts | 184° |
| 2026-04-23 18:19 | 32.15507 | -77.66114 | 34156 ft | 469 kts | 184° |
| 2026-04-23 18:19 | 32.09036 | -77.66446 | 34160 ft | 468 kts | 185° |
| 2026-04-23 18:20 | 32.02531 | -77.66788 | 34160 ft | 468 kts | 185° |
| 2026-04-23 18:20 | 31.96032 | -77.67123 | 34166 ft | 468 kts | 184° |
| 2026-04-23 18:21 | 31.89509 | -77.67449 | 34171 ft | 468 kts | 185° |
| 2026-04-23 18:21 | 31.83009 | -77.67793 | 34170 ft | 468 kts | 185° |
| 2026-04-23 18:22 | 31.76548 | -77.68128 | 34169 ft | 468 kts | 185° |
| 2026-04-23 18:22 | 31.70049 | -77.68463 | 34162 ft | 468 kts | 185° |
| 2026-04-23 18:23 | 31.60295 | -77.68956 | 34167 ft | 467 kts | 185° |
| 2026-04-23 18:24 | 31.50546 | -77.69450 | 34174 ft | 467 kts | 185° |
| 2026-04-23 18:25 | 31.40847 | -77.69944 | 34174 ft | 467 kts | 185° |
| 2026-04-23 18:25 | 31.34362 | -77.70284 | 34183 ft | 466 kts | 185° |
| 2026-04-23 18:26 | 31.27883 | -77.70616 | 34184 ft | 466 kts | 185° |
| 2026-04-23 18:26 | 31.21399 | -77.70936 | 34185 ft | 466 kts | 185° |
| 2026-04-23 18:27 | 31.14968 | -77.71253 | 34181 ft | 466 kts | 185° |
| 2026-04-23 18:27 | 31.08500 | -77.71585 | 34184 ft | 465 kts | 185° |
| 2026-04-23 18:28 | 31.02025 | -77.71927 | 34186 ft | 465 kts | 185° |
| 2026-04-23 18:28 | 30.95599 | -77.72249 | 34186 ft | 465 kts | 185° |
| 2026-04-23 18:29 | 30.89131 | -77.72570 | 34180 ft | 465 kts | 184° |
| 2026-04-23 18:29 | 30.82657 | -77.72896 | 34183 ft | 465 kts | 185° |
| 2026-04-23 18:30 | 30.76194 | -77.73226 | 34192 ft | 465 kts | 185° |
| 2026-04-23 18:30 | 30.69729 | -77.73552 | 34190 ft | 465 kts | 185° |
| 2026-04-23 18:31 | 30.63309 | -77.73874 | 34185 ft | 465 kts | 184° |
| 2026-04-23 18:31 | 30.56843 | -77.74199 | 34190 ft | 465 kts | 184° |
| 2026-04-23 18:32 | 30.50381 | -77.74520 | 34194 ft | 465 kts | 184° |
| 2026-04-23 18:32 | 30.43917 | -77.74840 | 34196 ft | 465 kts | 184° |
| 2026-04-23 18:33 | 30.37486 | -77.74827 | 34194 ft | 466 kts | 179° |
| 2026-04-23 18:33 | 30.31005 | -77.74479 | 34196 ft | 466 kts | 179° |
| 2026-04-23 18:34 | 30.24520 | -77.74139 | 34198 ft | 466 kts | 179° |
| 2026-04-23 18:34 | 30.18036 | -77.73801 | 34196 ft | 466 kts | 179° |
| 2026-04-23 18:35 | 30.11551 | -77.73464 | 34194 ft | 466 kts | 179° |
| 2026-04-23 18:35 | 30.05068 | -77.73124 | 34194 ft | 466 kts | 179° |
| 2026-04-23 18:36 | 29.98631 | -77.72784 | 34193 ft | 466 kts | 179° |
| 2026-04-23 18:36 | 29.92152 | -77.72451 | 34196 ft | 466 kts | 179° |
| 2026-04-23 18:37 | 29.85675 | -77.72111 | 34194 ft | 466 kts | 179° |
| 2026-04-23 18:37 | 29.79195 | -77.71767 | 34184 ft | 466 kts | 179° |
| 2026-04-23 18:38 | 29.72765 | -77.71439 | 34188 ft | 466 kts | 179° |
| 2026-04-23 18:38 | 29.66288 | -77.71111 | 34186 ft | 466 kts | 179° |
| 2026-04-23 18:39 | 29.59813 | -77.70778 | 34186 ft | 466 kts | 179° |
| 2026-04-23 18:39 | 29.53341 | -77.70447 | 34183 ft | 465 kts | 180° |
| 2026-04-23 18:40 | 29.46918 | -77.70122 | 34177 ft | 465 kts | 180° |
| 2026-04-23 18:40 | 29.40451 | -77.69792 | 34177 ft | 465 kts | 180° |
| 2026-04-23 18:41 | 29.33988 | -77.69456 | 34177 ft | 465 kts | 180° |
| 2026-04-23 18:41 | 29.27531 | -77.69124 | 34180 ft | 465 kts | 180° |
| 2026-04-23 18:42 | 29.21115 | -77.68782 | 34165 ft | 464 kts | 180° |
| 2026-04-23 18:42 | 29.14660 | -77.68463 | 34165 ft | 464 kts | 180° |
| 2026-04-23 18:43 | 29.08202 | -77.68130 | 34174 ft | 465 kts | 180° |
| 2026-04-23 18:43 | 29.01739 | -77.67773 | 34171 ft | 465 kts | 180° |
| 2026-04-23 18:44 | 28.95279 | -77.67411 | 34156 ft | 465 kts | 181° |
| 2026-04-23 18:44 | 28.88864 | -77.67054 | 34168 ft | 465 kts | 181° |
| 2026-04-23 18:45 | 28.82500 | -77.65716 | 34176 ft | 475 kts | 158° |
| 2026-04-23 18:45 | 28.76715 | -77.62014 | 34176 ft | 478 kts | 153° |
| 2026-04-23 18:46 | 28.70972 | -77.58191 | 34181 ft | 478 kts | 153° |
| 2026-04-23 18:46 | 28.65258 | -77.54405 | 34162 ft | 478 kts | 154° |
| 2026-04-23 18:47 | 28.59492 | -77.50620 | 34157 ft | 479 kts | 154° |
| 2026-04-23 18:47 | 28.53718 | -77.46832 | 34152 ft | 480 kts | 154° |
| 2026-04-23 18:48 | 28.47933 | -77.43038 | 34157 ft | 480 kts | 154° |
| 2026-04-23 18:48 | 28.42183 | -77.39262 | 34160 ft | 481 kts | 154° |
| 2026-04-23 18:49 | 28.36394 | -77.35465 | 34153 ft | 481 kts | 154° |
| 2026-04-23 18:49 | 28.30588 | -77.31674 | 34147 ft | 482 kts | 155° |
| 2026-04-23 18:50 | 28.25749 | -77.28514 | 34147 ft | 483 kts | 154° |
| 2026-04-23 18:50 | 28.18931 | -77.24061 | 34154 ft | 484 kts | 155° |
| 2026-04-23 18:51 | 28.13132 | -77.20277 | 34154 ft | 485 kts | 155° |
| 2026-04-23 18:51 | 28.07281 | -77.16473 | 34160 ft | 485 kts | 155° |
| 2026-04-23 18:52 | 28.01415 | -77.12673 | 34144 ft | 486 kts | 155° |
| 2026-04-23 18:52 | 27.95542 | -77.08863 | 34150 ft | 487 kts | 155° |
| 2026-04-23 18:53 | 27.89702 | -77.05074 | 34148 ft | 488 kts | 155° |
| 2026-04-23 18:53 | 27.83809 | -77.01265 | 34155 ft | 488 kts | 155° |
| 2026-04-23 18:54 | 27.77917 | -76.97452 | 34163 ft | 488 kts | 155° |
| 2026-04-23 18:54 | 27.72024 | -76.93636 | 34142 ft | 489 kts | 156° |
| 2026-04-23 18:55 | 27.66153 | -76.89854 | 34149 ft | 489 kts | 156° |
| 2026-04-23 18:55 | 27.60240 | -76.86046 | 34157 ft | 490 kts | 156° |
| 2026-04-23 18:56 | 27.55320 | -76.82884 | 34160 ft | 490 kts | 156° |
| 2026-04-23 18:56 | 27.48399 | -76.78431 | 34159 ft | 490 kts | 156° |
| 2026-04-23 18:57 | 27.42473 | -76.74644 | 34140 ft | 490 kts | 157° |
| 2026-04-23 18:57 | 27.36590 | -76.70871 | 34148 ft | 490 kts | 157° |
| 2026-04-23 18:58 | 27.30670 | -76.67074 | 34153 ft | 490 kts | 157° |
| 2026-04-23 18:58 | 27.24748 | -76.63282 | 34153 ft | 490 kts | 157° |
| 2026-04-23 18:59 | 27.18817 | -76.59507 | 34154 ft | 490 kts | 157° |
| 2026-04-23 18:59 | 27.12927 | -76.55757 | 34154 ft | 490 kts | 157° |
| 2026-04-23 19:00 | 27.07001 | -76.51980 | 34150 ft | 490 kts | 157° |
| 2026-04-23 19:00 | 27.01075 | -76.48207 | 34161 ft | 490 kts | 157° |
| 2026-04-23 19:01 | 26.95153 | -76.44445 | 34160 ft | 489 kts | 157° |
| 2026-04-23 19:01 | 26.89224 | -76.40686 | 34155 ft | 489 kts | 157° |
| 2026-04-23 19:02 | 26.84302 | -76.37569 | 34152 ft | 489 kts | 157° |
| 2026-04-23 19:02 | 26.77422 | -76.33212 | 34134 ft | 489 kts | 158° |
| 2026-04-23 19:03 | 26.71507 | -76.29470 | 34141 ft | 488 kts | 158° |
| 2026-04-23 19:03 | 26.65589 | -76.25737 | 34143 ft | 488 kts | 158° |
| 2026-04-23 19:04 | 26.59712 | -76.22035 | 34144 ft | 488 kts | 158° |
| 2026-04-23 19:04 | 26.53798 | -76.18300 | 34148 ft | 488 kts | 158° |
| 2026-04-23 19:05 | 26.47891 | -76.14579 | 34120 ft | 488 kts | 158° |
| 2026-04-23 19:05 | 26.41977 | -76.10865 | 34130 ft | 488 kts | 158° |
| 2026-04-23 19:06 | 26.36061 | -76.07155 | 34131 ft | 488 kts | 158° |
| 2026-04-23 19:06 | 26.30184 | -76.03471 | 34133 ft | 488 kts | 159° |
| 2026-04-23 19:07 | 26.24263 | -75.99771 | 34135 ft | 488 kts | 159° |
| 2026-04-23 19:07 | 26.18345 | -75.96069 | 34136 ft | 488 kts | 158° |
| 2026-04-23 19:08 | 26.12431 | -75.92362 | 34109 ft | 488 kts | 159° |
| 2026-04-23 19:08 | 26.06506 | -75.88658 | 34120 ft | 489 kts | 159° |
| 2026-04-23 19:09 | 26.00635 | -75.84923 | 34122 ft | 494 kts | 154° |
| 2026-04-23 19:09 | 25.95053 | -75.80393 | 34126 ft | 497 kts | 151° |
| 2026-04-23 19:10 | 25.89489 | -75.75826 | 34130 ft | 497 kts | 151° |
| 2026-04-23 19:10 | 25.83928 | -75.71258 | 34104 ft | 497 kts | 152° |
| 2026-04-23 19:11 | 25.78362 | -75.66705 | 34111 ft | 497 kts | 152° |
| 2026-04-23 19:11 | 25.72833 | -75.62194 | 34115 ft | 497 kts | 152° |
| 2026-04-23 19:12 | 25.68170 | -75.58391 | 34117 ft | 497 kts | 152° |
| 2026-04-23 19:12 | 25.61696 | -75.53113 | 34117 ft | 497 kts | 152° |
| 2026-04-23 19:13 | 25.56123 | -75.48577 | 34119 ft | 497 kts | 152° |
| 2026-04-23 19:13 | 25.50549 | -75.44037 | 34088 ft | 497 kts | 152° |
| 2026-04-23 19:14 | 25.45010 | -75.39540 | 34101 ft | 497 kts | 152° |
| 2026-04-23 19:14 | 25.39431 | -75.35014 | 34111 ft | 497 kts | 152° |
| 2026-04-23 19:15 | 25.33849 | -75.30494 | 34114 ft | 497 kts | 152° |
| 2026-04-23 19:15 | 25.28281 | -75.25990 | 34114 ft | 497 kts | 152° |
| 2026-04-23 19:16 | 25.22731 | -75.21504 | 34114 ft | 497 kts | 152° |
| 2026-04-23 19:16 | 25.17155 | -75.16998 | 34095 ft | 497 kts | 153° |
| 2026-04-23 19:17 | 25.08788 | -75.10261 | 34098 ft | 496 kts | 153° |
| 2026-04-23 19:17 | 25.03219 | -75.05772 | 34104 ft | 496 kts | 153° |
| 2026-04-23 19:18 | 24.97700 | -75.01284 | 34097 ft | 496 kts | 153° |
| 2026-04-23 19:18 | 24.92148 | -74.96752 | 34105 ft | 496 kts | 152° |
| 2026-04-23 19:19 | 24.83816 | -74.89978 | 34081 ft | 496 kts | 153° |
| 2026-04-23 19:20 | 24.75510 | -74.83252 | 34096 ft | 496 kts | 153° |
| 2026-04-23 19:20 | 24.69953 | -74.78752 | 34101 ft | 496 kts | 153° |
| 2026-04-23 19:21 | 24.61612 | -74.72008 | 34105 ft | 496 kts | 153° |
| 2026-04-23 19:22 | 24.56011 | -74.67591 | 34100 ft | 494 kts | 154° |
| 2026-04-23 19:22 | 24.47594 | -74.61143 | 34082 ft | 494 kts | 154° |
| 2026-04-23 19:23 | 24.41970 | -74.56805 | 34087 ft | 495 kts | 154° |
| 2026-04-23 19:24 | 24.33798 | -74.49748 | 34096 ft | 501 kts | 148° |
| 2026-04-23 19:24 | 24.25800 | -74.42355 | 34103 ft | 501 kts | 149° |
| 2026-04-23 19:25 | 24.15021 | -74.32800 | 34067 ft | 500 kts | 150° |
| 2026-04-23 19:26 | 24.06896 | -74.25620 | 34084 ft | 501 kts | 150° |
| 2026-04-23 19:27 | 23.93405 | -74.13646 | 34087 ft | 501 kts | 150° |
| 2026-04-23 19:28 | 23.82561 | -74.04085 | 34091 ft | 501 kts | 150° |
| 2026-04-23 19:29 | 23.74469 | -73.96940 | 34085 ft | 501 kts | 150° |
| 2026-04-23 19:30 | 23.66334 | -73.89792 | 34078 ft | 501 kts | 150° |
| 2026-04-23 19:31 | 23.58199 | -73.82639 | 34076 ft | 501 kts | 150° |
| 2026-04-23 19:31 | 23.52767 | -73.77878 | 34076 ft | 501 kts | 150° |
| 2026-04-23 19:32 | 23.47377 | -73.73159 | 34069 ft | 500 kts | 150° |
| 2026-04-23 19:32 | 23.41947 | -73.68412 | 34076 ft | 500 kts | 150° |
| 2026-04-23 19:33 | 23.36522 | -73.63662 | 34069 ft | 500 kts | 151° |
| 2026-04-23 19:33 | 23.28378 | -73.56551 | 34071 ft | 501 kts | 151° |
| 2026-04-23 19:34 | 23.22983 | -73.51846 | 34069 ft | 501 kts | 151° |
| 2026-04-23 19:35 | 23.14827 | -73.44753 | 34043 ft | 501 kts | 150° |
| 2026-04-23 19:35 | 23.09391 | -73.40025 | 34048 ft | 501 kts | 150° |
| 2026-04-23 19:36 | 23.03951 | -73.35295 | 34052 ft | 501 kts | 150° |
| 2026-04-23 19:36 | 22.98546 | -73.30606 | 34056 ft | 501 kts | 151° |
| 2026-04-23 19:37 | 22.93101 | -73.25885 | 33884 ft | 501 kts | 150° |
| 2026-04-23 19:37 | 22.90359 | -73.23511 | 32836 ft | 508 kts | 150° |
| 2026-04-23 19:37 | 22.87583 | -73.21111 | 31892 ft | 512 kts | 149° |
| 2026-04-23 19:37 | 22.84789 | -73.18698 | 31035 ft | 514 kts | 149° |
| 2026-04-23 19:38 | 22.81991 | -73.16281 | 30201 ft | 514 kts | 148° |
| 2026-04-23 19:38 | 22.79201 | -73.13868 | 29280 ft | 513 kts | 148° |
| 2026-04-23 19:38 | 22.76446 | -73.11484 | 28287 ft | 514 kts | 147° |
| 2026-04-23 19:38 | 22.73646 | -73.09061 | 27239 ft | 516 kts | 147° |
| 2026-04-23 19:39 | 22.70837 | -73.06636 | 26170 ft | 518 kts | 147° |
| 2026-04-23 19:39 | 22.68006 | -73.04201 | 25091 ft | 520 kts | 146° |
| 2026-04-23 19:39 | 22.65172 | -73.01767 | 24204 ft | 518 kts | 146° |
| 2026-04-23 19:39 | 22.62360 | -72.99349 | 23421 ft | 514 kts | 146° |
| 2026-04-23 19:40 | 22.59574 | -72.96946 | 22589 ft | 509 kts | 145° |
| 2026-04-23 19:40 | 22.56824 | -72.94575 | 21837 ft | 503 kts | 145° |
| 2026-04-23 19:40 | 22.54107 | -72.92232 | 21075 ft | 496 kts | 145° |
| 2026-04-23 19:40 | 22.51412 | -72.89923 | 20318 ft | 490 kts | 145° |
| 2026-04-23 19:41 | 22.48786 | -72.87694 | 19574 ft | 485 kts | 145° |
| 2026-04-23 19:41 | 22.46137 | -72.85464 | 18884 ft | 479 kts | 145° |
| 2026-04-23 19:41 | 22.44368 | -72.83981 | 18430 ft | 475 kts | 145° |
| 2026-04-23 19:41 | 22.40934 | -72.81109 | 17402 ft | 468 kts | 145° |
| 2026-04-23 19:42 | 22.38379 | -72.78972 | 16658 ft | 462 kts | 144° |
| 2026-04-23 19:42 | 22.35858 | -72.76858 | 15911 ft | 456 kts | 144° |
| 2026-04-23 19:42 | 22.33369 | -72.74769 | 15216 ft | 450 kts | 144° |
| 2026-04-23 19:42 | 22.30912 | -72.72713 | 14659 ft | 442 kts | 144° |
| 2026-04-23 19:43 | 22.28530 | -72.70716 | 14525 ft | 425 kts | 144° |
| 2026-04-23 19:43 | 22.26272 | -72.68822 | 14410 ft | 409 kts | 144° |
| 2026-04-23 19:43 | 22.24026 | -72.67058 | 14292 ft | 390 kts | 152° |
| 2026-04-23 19:43 | 22.21647 | -72.65823 | 14176 ft | 371 kts | 160° |
| 2026-04-23 19:44 | 22.19311 | -72.64770 | 14053 ft | 357 kts | 160° |
| 2026-04-23 19:44 | 22.17060 | -72.63752 | 13944 ft | 344 kts | 160° |
| 2026-04-23 19:44 | 22.14894 | -72.62771 | 13818 ft | 332 kts | 160° |
| 2026-04-23 19:44 | 22.12795 | -72.61820 | 13588 ft | 324 kts | 160° |
| 2026-04-23 19:45 | 22.10725 | -72.60886 | 13216 ft | 321 kts | 161° |
| 2026-04-23 19:45 | 22.08670 | -72.59961 | 12841 ft | 319 kts | 161° |
| 2026-04-23 19:45 | 22.06662 | -72.59056 | 12486 ft | 316 kts | 161° |
| 2026-04-23 19:45 | 22.04641 | -72.58142 | 12101 ft | 314 kts | 160° |
| 2026-04-23 19:46 | 22.02631 | -72.57232 | 11728 ft | 313 kts | 161° |
| 2026-04-23 19:46 | 22.00630 | -72.56329 | 11362 ft | 311 kts | 161° |
| 2026-04-23 19:46 | 21.98639 | -72.55433 | 11000 ft | 309 kts | 161° |
| 2026-04-23 19:46 | 21.96658 | -72.54540 | 10646 ft | 308 kts | 160° |
| 2026-04-23 19:47 | 21.95355 | -72.53953 | 10412 ft | 307 kts | 160° |
| 2026-04-23 19:47 | 21.92730 | -72.52770 | 9905 ft | 306 kts | 160° |
| 2026-04-23 19:47 | 21.90724 | -72.51868 | 9060 ft | 319 kts | 160° |
| 2026-04-23 19:47 | 21.88664 | -72.50946 | 8211 ft | 331 kts | 159° |
| 2026-04-23 19:48 | 21.86499 | -72.49974 | 7333 ft | 342 kts | 158° |
| 2026-04-23 19:48 | 21.84278 | -72.48975 | 6468 ft | 350 kts | 159° |
| 2026-04-23 19:48 | 21.82005 | -72.47950 | 5534 ft | 358 kts | 157° |
| 2026-04-23 19:48 | 21.79780 | -72.46816 | 4587 ft | 345 kts | 143° |
| 2026-04-23 19:49 | 21.78641 | -72.45689 | 3988 ft | 329 kts | 124° |
| 2026-04-23 19:49 | 21.77608 | -72.42797 | 2881 ft | 299 kts | 91° |
| 2026-04-23 19:49 | 21.77743 | -72.41380 | 2700 ft | 278 kts | 73° |
| 2026-04-23 19:49 | 21.78627 | -72.39675 | 2557 ft | 249 kts | 45° |
| 2026-04-23 19:50 | 21.80518 | -72.38641 | 2422 ft | 220 kts | 11° |
| 2026-04-23 19:50 | 21.82006 | -72.38714 | 2292 ft | 212 kts | 348° |
| 2026-04-23 19:50 | 21.83320 | -72.39425 | 2060 ft | 214 kts | 324° |
| 2026-04-23 19:50 | 21.84009 | -72.40231 | 2004 ft | 220 kts | 306° |
| 2026-04-23 19:51 | 21.84626 | -72.42308 | 2005 ft | 227 kts | 272° |
| 2026-04-23 19:51 | 21.84493 | -72.43424 | 2009 ft | 229 kts | 253° |
| 2026-04-23 19:51 | 21.83731 | -72.44920 | 2012 ft | 229 kts | 226° |
| 2026-04-23 19:51 | 21.82457 | -72.45902 | 2008 ft | 224 kts | 198° |
| 2026-04-23 19:52 | 21.80943 | -72.46201 | 2013 ft | 219 kts | 173° |
| 2026-04-23 19:52 | 21.79534 | -72.45778 | 1983 ft | 207 kts | 143° |
| 2026-04-23 19:52 | 21.78368 | -72.44303 | 1985 ft | 194 kts | 107° |
| 2026-04-23 19:52 | 21.78190 | -72.43344 | 1986 ft | 192 kts | 88° |
| 2026-04-23 19:53 | 21.78245 | -72.42000 | 1997 ft | 169 kts | 88° |
| 2026-04-23 19:53 | 21.78184 | -72.40802 | 1986 ft | 153 kts | 90° |
| 2026-04-23 19:53 | 21.78103 | -72.39685 | 1973 ft | 148 kts | 90° |
| 2026-04-23 19:53 | 21.78029 | -72.38591 | 1936 ft | 146 kts | 90° |
| 2026-04-23 19:54 | 21.77961 | -72.37515 | 1738 ft | 145 kts | 90° |
| 2026-04-23 19:54 | 21.77895 | -72.36429 | 1584 ft | 146 kts | 89° |
| 2026-04-23 19:54 | 21.77830 | -72.35352 | 1381 ft | 141 kts | 90° |
| 2026-04-23 19:54 | 21.77770 | -72.34306 | 1184 ft | 139 kts | 89° |
| 2026-04-23 19:55 | 21.77707 | -72.33271 | 981 ft | 139 kts | 91° |
| 2026-04-23 19:55 | 21.77645 | -72.32253 | 817 ft | 138 kts | 88° |
| 2026-04-23 19:55 | 21.77583 | -72.31204 | 650 ft | 141 kts | 86° |
| 2026-04-23 19:55 | 21.77516 | -72.30163 | 494 ft | 138 kts | 89° |
| 2026-04-23 19:56 | 21.77472 | -72.29114 | 298 ft | 139 kts | 86° |
| 2026-04-23 19:56 | 21.77428 | -72.28098 | 54 ft | 137 kts | 85° |
| 2026-04-23 19:56 | 21.77393 | -72.27195 | 38 ft | 104 kts | 94° |
| 2026-04-23 19:56 | 21.77360 | -72.26603 | 37 ft | 54 kts | 92° |
| 2026-04-23 19:57 | 21.77344 | -72.26404 | 38 ft | 6 kts | 56° |
| 2026-04-23 19:57 | 21.77354 | -72.26416 | 38 ft | 6 kts | 277° |
| 2026-04-23 19:57 | 21.77357 | -72.26552 | 37 ft | 26 kts | 273° |
| 2026-04-23 19:57 | 21.77370 | -72.26793 | 37 ft | 36 kts | 274° |
| 2026-04-23 19:58 | 21.77384 | -72.27048 | 38 ft | 23 kts | 278° |
| 2026-04-23 19:58 | 21.77422 | -72.27084 | 38 ft | 3 kts | 25° |
| 2026-04-23 19:58 | 21.77458 | -72.27072 | 39 ft | 6 kts | 13° |
| 2026-04-23 19:58 | 21.77494 | -72.27082 | 41 ft | 6 kts | 315° |
| 2026-04-23 19:59 | 21.77510 | -72.27134 | 41 ft | 10 kts | 275° |
| 2026-04-23 19:59 | 21.77516 | -72.27218 | 42 ft | 12 kts | 273° |
| 2026-04-23 19:59 | 21.77520 | -72.27312 | 42 ft | 13 kts | 272° |
| 2026-04-23 19:59 | 21.77545 | -72.27400 | 42 ft | 9 kts | 342° |
| 2026-04-23 20:00 | 21.77583 | -72.27374 | 42 ft | 7 kts | 35° |
| 2026-04-23 20:00 | 21.77610 | -72.27355 | 41 ft | 1 kts | 33° |
| 2026-04-23 20:00 | 21.77610 | -72.27354 | 41 ft | 0 kts | 33° |